| time (UTC) | temp F | wind direction | speed MPH | gust MPH | rain 1hr in | rain 24hr in | rain mn in | humidity % | barometer mb |
| 20260509234534 | 53 | 310 | 7.0 | 18.0 | 0.04 | 0.25 | 0.12 | 90 | 1007.8 |
| 20260509234030 | 54 | 263 | 8.0 | 23.0 | 0.03 | 0.24 | 0.11 | 88 | 1007.8 |
| 20260509233533 | 55 | 337 | 8.0 | 33.0 | 0.02 | 0.23 | 0.10 | 85 | 1008.0 |
| 20260509233030 | 58 | 273 | 11.0 | 21.0 | 0.01 | 0.22 | 0.09 | 79 | 1007.4 |
| 20260509232530 | 62 | 257 | 10.0 | 21.0 | 0.00 | 0.21 | 0.08 | 72 | 1007.3 |
| 20260509232030 | 64 | 272 | 5.0 | 10.0 | 0.00 | 0.21 | 0.08 | 67 | 1005.6 |
| 20260509231530 | 64 | 186 | 7.0 | 10.0 | 0.00 | 0.21 | 0.08 | 66 | 1004.9 |
| 20260509231029 | 64 | 229 | 5.0 | 10.0 | 0.00 | 0.21 | 0.08 | 66 | 1004.9 |
| 20260509230530 | 64 | 207 | 6.0 | 10.0 | 0.00 | 0.21 | 0.08 | 66 | 1004.9 |
| 20260509230029 | 64 | 218 | 6.0 | 16.0 | 0.00 | 0.23 | 0.08 | 65 | 1004.8 |
| 20260509225529 | 64 | 190 | 4.0 | 16.0 | 0.00 | 0.23 | 0.08 | 64 | 1004.6 |
| 20260509225028 | 65 | 257 | 7.0 | 14.0 | 0.00 | 0.23 | 0.08 | 64 | 1004.8 |
| 20260509224528 | 65 | 236 | 6.0 | 15.0 | 0.00 | 0.23 | 0.08 | 65 | 1004.8 |
| 20260509224029 | 65 | 190 | 6.0 | 14.0 | 0.00 | 0.23 | 0.08 | 64 | 1004.8 |
| 20260509223528 | 65 | 197 | 7.0 | 20.0 | 0.00 | 0.23 | 0.08 | 64 | 1004.7 |
| 20260509223028 | 65 | 211 | 9.0 | 19.0 | 0.00 | 0.23 | 0.08 | 63 | 1004.8 |
| 20260509222527 | 65 | 213 | 10.0 | 19.0 | 0.00 | 0.23 | 0.08 | 63 | 1004.5 |
| 20260509222029 | 65 | 197 | 9.0 | 18.0 | 0.00 | 0.23 | 0.08 | 64 | 1004.3 |
| 20260509221527 | 65 | 211 | 9.0 | 18.0 | 0.00 | 0.23 | 0.08 | 63 | 1004.3 |
| 20260509221030 | 65 | 190 | 11.0 | 18.0 | 0.00 | 0.23 | 0.08 | 63 | 1004.3 |
| 20260509220526 | 66 | 221 | 10.0 | 19.0 | 0.00 | 0.23 | 0.08 | 63 | 1004.3 |
| 20260509220026 | 66 | 204 | 7.0 | 19.0 | 0.00 | 0.24 | 0.08 | 63 | 1004.2 |
| 20260509215526 | 65 | 196 | 6.0 | 17.0 | 0.00 | 0.24 | 0.08 | 65 | 1004.3 |
| 20260509215028 | 65 | 205 | 9.0 | 17.0 | 0.00 | 0.24 | 0.08 | 63 | 1004.3 |
| 20260509214535 | 66 | 213 | 12.0 | 19.0 | 0.00 | 0.24 | 0.08 | 63 | 1004.5 |
| 20260509214128 | 65 | 219 | 11.0 | 20.0 | 0.00 | 0.24 | 0.08 | 63 | 1004.5 |
| 20260509213527 | 66 | 232 | 14.0 | 21.0 | 0.00 | 0.24 | 0.08 | 62 | 1004.3 |
| 20260509213024 | 66 | 269 | 11.0 | 21.0 | 0.00 | 0.24 | 0.08 | 64 | 1004.3 |
| 20260509212524 | 66 | 227 | 10.0 | 18.0 | 0.00 | 0.24 | 0.08 | 62 | 1004.4 |
| 20260509212023 | 66 | 214 | 9.0 | 16.0 | 0.00 | 0.24 | 0.08 | 64 | 1004.6 |
| 20260509211525 | 66 | 217 | 6.0 | 15.0 | 0.00 | 0.24 | 0.08 | 65 | 1004.6 |
| 20260509211023 | 66 | 228 | 7.0 | 21.0 | 0.00 | 0.24 | 0.08 | 64 | 1004.7 |
| 20260509210522 | 66 | 209 | 11.0 | 21.0 | 0.00 | 0.24 | 0.08 | 61 | 1004.7 |
| 20260509210021 | 66 | 231 | 8.0 | 19.0 | 0.00 | 0.24 | 0.08 | 63 | 1004.6 |
| 20260509205519 | 66 | 217 | 10.0 | 18.0 | 0.00 | 0.24 | 0.08 | 65 | 1004.6 |
| 20260509205019 | 65 | 204 | 10.0 | 18.0 | 0.00 | 0.24 | 0.08 | 63 | 1004.7 |
| 20260509204527 | 65 | 222 | 10.0 | 23.0 | 0.00 | 0.24 | 0.08 | 65 | 1004.8 |
| 20260509204017 | 65 | 221 | 14.0 | 25.0 | 0.00 | 0.24 | 0.08 | 63 | 1005.0 |
| 20260509203516 | 65 | 228 | 8.0 | 19.0 | 0.00 | 0.24 | 0.08 | 64 | 1005.2 |
| 20260509203015 | 65 | 228 | 9.0 | 20.0 | 0.00 | 0.24 | 0.08 | 66 | 1005.1 |
| 20260509202514 | 65 | 186 | 8.0 | 24.0 | 0.00 | 0.24 | 0.08 | 64 | 1005.4 |
| 20260509202014 | 64 | 209 | 12.0 | 24.0 | 0.00 | 0.24 | 0.08 | 65 | 1005.7 |
| 20260509201514 | 64 | 245 | 11.0 | 18.0 | 0.00 | 0.24 | 0.08 | 67 | 1005.7 |
| 20260509201012 | 64 | 219 | 11.0 | 21.0 | 0.00 | 0.24 | 0.08 | 67 | 1005.7 |
| 20260509200515 | 64 | 226 | 12.0 | 21.0 | 0.00 | 0.24 | 0.08 | 65 | 1005.6 |
| 20260509200012 | 64 | 225 | 6.0 | 16.0 | 0.00 | 0.24 | 0.08 | 67 | 1005.7 |
| 20260509195509 | 64 | 232 | 9.0 | 16.0 | 0.00 | 0.24 | 0.08 | 67 | 1005.8 |
| 20260509195011 | 64 | 234 | 6.0 | 13.0 | 0.00 | 0.24 | 0.08 | 67 | 1005.8 |
| 20260509194508 | 63 | 229 | 7.0 | 21.0 | 0.00 | 0.24 | 0.08 | 70 | 1005.9 |
| 20260509194006 | 63 | 199 | 10.0 | 21.0 | 0.00 | 0.24 | 0.08 | 68 | 1006.0 |
| 20260509193506 | 63 | 188 | 12.0 | 20.0 | 0.00 | 0.24 | 0.08 | 67 | 1006.1 |
| 20260509193006 | 64 | 191 | 9.0 | 19.0 | 0.00 | 0.24 | 0.08 | 69 | 1006.1 |
| 20260509192504 | 64 | 207 | 8.0 | 16.0 | 0.00 | 0.24 | 0.08 | 70 | 1006.2 |
| 20260509192004 | 63 | 207 | 8.0 | 17.0 | 0.00 | 0.24 | 0.08 | 69 | 1006.3 |
| 20260509191504 | 63 | 215 | 7.0 | 17.0 | 0.00 | 0.24 | 0.08 | 72 | 1006.3 |
| 20260509191005 | 63 | 174 | 3.0 | 14.0 | 0.00 | 0.24 | 0.08 | 75 | 1006.2 |
| 20260509190502 | 63 | 212 | 5.0 | 15.0 | 0.00 | 0.24 | 0.08 | 72 | 1006.4 |
| 20260509190002 | 63 | 159 | 4.0 | 15.0 | 0.00 | 0.24 | 0.08 | 75 | 1006.3 |
| 20260509185502 | 62 | 205 | 10.0 | 17.0 | 0.00 | 0.24 | 0.08 | 71 | 1006.5 |
| 20260509185001 | 62 | 211 | 7.0 | 14.0 | 0.00 | 0.24 | 0.08 | 72 | 1006.5 |
| 20260509184600 | 62 | 146 | 5.0 | 13.0 | 0.00 | 0.24 | 0.08 | 74 | 1006.5 |
| 20260509184059 | 62 | 207 | 9.0 | 18.0 | 0.00 | 0.24 | 0.08 | 71 | 1006.5 |
| 20260509183600 | 62 | 221 | 9.0 | 18.0 | 0.00 | 0.24 | 0.08 | 73 | 1006.6 |
| 20260509183100 | 62 | 198 | 10.0 | 17.0 | 0.00 | 0.24 | 0.08 | 73 | 1006.5 |
| 20260509182604 | 62 | 236 | 7.0 | 16.0 | 0.00 | 0.24 | 0.08 | 75 | 1006.5 |
| 20260509182058 | 62 | 216 | 9.0 | 15.0 | 0.00 | 0.24 | 0.08 | 75 | 1006.5 |
| 20260509181604 | 62 | 196 | 8.0 | 15.0 | 0.00 | 0.24 | 0.08 | 75 | 1006.5 |
| 20260509181057 | 61 | 225 | 6.0 | 16.0 | 0.00 | 0.24 | 0.08 | 77 | 1006.5 |
| 20260509180558 | 61 | 213 | 4.0 | 18.0 | 0.00 | 0.24 | 0.08 | 77 | 1006.5 |
| 20260509180059 | 61 | 212 | 10.0 | 18.0 | 0.00 | 0.24 | 0.08 | 75 | 1006.6 |
| 20260509175556 | 62 | 238 | 4.0 | 15.0 | 0.00 | 0.24 | 0.08 | 77 | 1006.5 |
| 20260509175056 | 61 | 231 | 9.0 | 15.0 | 0.00 | 0.24 | 0.08 | 76 | 1006.5 |
| 20260509174602 | 61 | 215 | 5.0 | 19.0 | 0.00 | 0.24 | 0.08 | 75 | 1006.6 |
| 20260509174053 | 60 | 242 | 10.0 | 19.0 | 0.00 | 0.24 | 0.08 | 76 | 1006.7 |
| 20260509173551 | 60 | 209 | 8.0 | 13.0 | 0.00 | 0.24 | 0.08 | 77 | 1006.7 |
| 20260509173102 | 60 | 250 | 7.0 | 15.0 | 0.00 | 0.24 | 0.08 | 77 | 1006.7 |
| 20260509172549 | 60 | 199 | 6.0 | 16.0 | 0.00 | 0.24 | 0.08 | 80 | 1006.9 |
| 20260509172049 | 59 | 173 | 8.0 | 16.0 | 0.00 | 0.24 | 0.08 | 83 | 1006.9 |
| 20260509171552 | 59 | 206 | 4.0 | 12.0 | 0.00 | 0.24 | 0.08 | 82 | 1007.0 |
| 20260509171046 | 58 | 213 | 7.0 | 12.0 | 0.00 | 0.24 | 0.08 | 85 | 1007.1 |
| 20260509170545 | 58 | 212 | 6.0 | 11.0 | 0.00 | 0.24 | 0.08 | 86 | 1007.1 |
| 20260509170045 | 57 | 223 | 6.0 | 12.0 | 0.00 | 0.24 | 0.08 | 87 | 1007.2 |
| 20260509165541 | 57 | 220 | 7.0 | 12.0 | 0.00 | 0.24 | 0.08 | 88 | 1007.2 |
| 20260509165040 | 56 | 219 | 5.0 | 10.0 | 0.00 | 0.24 | 0.08 | 89 | 1007.3 |
| 20260509164542 | 56 | 218 | 5.0 | 9.0 | 0.00 | 0.24 | 0.08 | 90 | 1007.3 |
| 20260509164037 | 55 | 254 | 4.0 | 8.0 | 0.00 | 0.24 | 0.08 | 91 | 1007.3 |
| 20260509163536 | 55 | 236 | 4.0 | 8.0 | 0.00 | 0.24 | 0.08 | 91 | 1007.6 |
| 20260509163036 | 55 | 229 | 3.0 | 8.0 | 0.00 | 0.24 | 0.08 | 92 | 1007.5 |
| 20260509162535 | 55 | 223 | 6.0 | 8.0 | 0.00 | 0.24 | 0.08 | 92 | 1007.5 |
| 20260509162039 | 55 | 217 | 3.0 | 8.0 | 0.00 | 0.24 | 0.08 | 94 | 1007.5 |
| 20260509161533 | 54 | 242 | 2.0 | 8.0 | 0.00 | 0.24 | 0.08 | 94 | 1007.6 |
| 20260509161038 | 54 | 274 | 3.0 | 7.0 | 0.00 | 0.24 | 0.08 | 95 | 1007.6 |
| 20260509160532 | 54 | 242 | 3.0 | 6.0 | 0.00 | 0.24 | 0.08 | 95 | 1007.5 |
| 20260509160031 | 53 | 241 | 1.0 | 6.0 | 0.00 | 0.24 | 0.08 | 95 | 1007.6 |
| 20260509155529 | 53 | 227 | 2.0 | 6.0 | 0.00 | 0.24 | 0.08 | 95 | 1007.4 |
| 20260509155029 | 53 | 233 | 2.0 | 7.0 | 0.00 | 0.24 | 0.08 | 96 | 1007.5 |
| 20260509154534 | 53 | 219 | 3.0 | 7.0 | 0.00 | 0.24 | 0.08 | 95 | 1007.5 |
| 20260509154030 | 53 | 240 | 3.0 | 7.0 | 0.00 | 0.24 | 0.08 | 95 | 1007.6 |
| 20260509153527 | 53 | 217 | 4.0 | 7.0 | 0.00 | 0.24 | 0.08 | 95 | 1007.6 |
| 20260509153032 | 52 | 220 | 3.0 | 7.0 | 0.00 | 0.24 | 0.08 | 95 | 1007.6 |
| 20260509152526 | 52 | 235 | 4.0 | 7.0 | 0.00 | 0.24 | 0.08 | 96 | 1007.6 |
| 20260509152026 | 52 | 229 | 3.0 | 7.0 | 0.00 | 0.24 | 0.08 | 96 | 1007.7 |
| 20260509151527 | 52 | 221 | 5.0 | 10.0 | 0.00 | 0.24 | 0.08 | 96 | 1007.7 |
| 20260509151025 | 52 | 223 | 7.0 | 10.0 | 0.00 | 0.24 | 0.08 | 96 | 1007.7 |
| 20260509150525 | 52 | 210 | 6.0 | 9.0 | 0.00 | 0.24 | 0.08 | 96 | 1007.6 |
| 20260509150025 | 52 | 204 | 2.0 | 6.0 | 0.00 | 0.24 | 0.08 | 96 | 1007.6 |
| 20260509145525 | 52 | 234 | 3.0 | 10.0 | 0.00 | 0.24 | 0.08 | 97 | 1007.5 |
| 20260509145024 | 52 | 225 | 6.0 | 10.0 | 0.00 | 0.24 | 0.08 | 96 | 1007.6 |
| 20260509144524 | 52 | 202 | 4.0 | 9.0 | 0.00 | 0.24 | 0.08 | 96 | 1007.5 |
| 20260509144023 | 52 | 203 | 4.0 | 9.0 | 0.00 | 0.24 | 0.08 | 97 | 1007.5 |
| 20260509143525 | 52 | 237 | 5.0 | 9.0 | 0.00 | 0.24 | 0.08 | 97 | 1007.6 |
| 20260509143023 | 51 | 219 | 4.0 | 9.0 | 0.00 | 0.24 | 0.08 | 97 | 1007.6 |
| 20260509142521 | 51 | 210 | 2.0 | 6.0 | 0.00 | 0.24 | 0.08 | 97 | 1007.6 |
| 20260509142020 | 51 | 197 | 4.0 | 7.0 | 0.00 | 0.24 | 0.08 | 97 | 1007.6 |
| 20260509141520 | 51 | 206 | 4.0 | 7.0 | 0.00 | 0.24 | 0.08 | 97 | 1007.7 |
| 20260509141020 | 51 | 234 | 4.0 | 8.0 | 0.00 | 0.24 | 0.08 | 97 | 1007.7 |
| 20260509140519 | 51 | 226 | 5.0 | 12.0 | 0.00 | 0.24 | 0.08 | 97 | 1007.6 |
| 20260509140019 | 51 | 209 | 5.0 | 12.0 | 0.00 | 0.24 | 0.08 | 97 | 1007.6 |
| 20260509135521 | 51 | 209 | 4.0 | 11.0 | 0.00 | 0.24 | 0.08 | 97 | 1007.5 |
| 20260509135019 | 51 | 219 | 5.0 | 11.0 | 0.00 | 0.24 | 0.08 | 97 | 1007.5 |
| 20260509134518 | 51 | 240 | 2.0 | 6.0 | 0.00 | 0.24 | 0.08 | 97 | 1007.5 |
| 20260509134016 | 51 | 214 | 1.0 | 7.0 | 0.00 | 0.24 | 0.08 | 97 | 1007.6 |
| 20260509133515 | 51 | 170 | 3.0 | 8.0 | 0.00 | 0.24 | 0.08 | 97 | 1007.7 |
| 20260509133015 | 50 | 213 | 5.0 | 8.0 | 0.00 | 0.24 | 0.08 | 97 | 1007.7 |
| 20260509132515 | 50 | 227 | 3.0 | 7.0 | 0.00 | 0.24 | 0.08 | 97 | 1007.8 |
| 20260509132015 | 50 | 233 | 4.0 | 7.0 | 0.00 | 0.24 | 0.08 | 97 | 1007.8 |
| 20260509131527 | 50 | 217 | 3.0 | 7.0 | 0.00 | 0.24 | 0.08 | 97 | 1007.8 |
| 20260509131013 | 50 | 223 | 2.0 | 7.0 | 0.00 | 0.24 | 0.08 | 97 | 1007.7 |
| 20260509130514 | 50 | 199 | 3.0 | 7.0 | 0.00 | 0.24 | 0.08 | 97 | 1007.8 |
| 20260509130022 | 50 | 227 | 2.0 | 6.0 | 0.00 | 0.24 | 0.08 | 97 | 1007.8 |
| 20260509125511 | 50 | 223 | 2.0 | 6.0 | 0.00 | 0.24 | 0.08 | 97 | 1007.8 |
| 20260509125013 | 50 | 237 | 1.0 | 4.0 | 0.00 | 0.24 | 0.08 | 97 | 1007.8 |
| 20260509124513 | 50 | 209 | 2.0 | 4.0 | 0.00 | 0.24 | 0.08 | 97 | 1007.9 |
| 20260509124010 | 50 | 210 | 1.0 | 7.0 | 0.00 | 0.24 | 0.08 | 97 | 1007.9 |
| 20260509123509 | 50 | 211 | 3.0 | 7.0 | 0.00 | 0.24 | 0.08 | 97 | 1008.0 |
| 20260509123009 | 50 | 196 | 1.0 | 5.0 | 0.01 | 0.24 | 0.08 | 97 | 1008.1 |
| 20260509122508 | 50 | 143 | 1.0 | 4.0 | 0.01 | 0.24 | 0.08 | 97 | 1008.2 |
| 20260509122010 | 50 | 226 | 1.0 | 4.0 | 0.01 | 0.24 | 0.08 | 97 | 1008.2 |
| 20260509121511 | 49 | 225 | 1.0 | 7.0 | 0.01 | 0.24 | 0.08 | 97 | 1008.3 |
| 20260509121013 | 49 | 222 | 4.0 | 7.0 | 0.01 | 0.24 | 0.08 | 97 | 1008.3 |
| 20260509120509 | 49 | 217 | 1.0 | 4.0 | 0.01 | 0.24 | 0.08 | 97 | 1008.3 |
| 20260509120007 | 49 | 217 | 0.0 | 5.0 | 0.01 | 0.24 | 0.08 | 97 | 1008.2 |
| 20260509115505 | 49 | 217 | 1.0 | 3.0 | 0.01 | 0.24 | 0.08 | 97 | 1008.2 |
| 20260509115005 | 49 | 217 | 0.0 | 3.0 | 0.01 | 0.24 | 0.08 | 97 | 1008.2 |
| 20260509114505 | 49 | 217 | 0.0 | 6.0 | 0.01 | 0.24 | 0.08 | 97 | 1008.2 |
| 20260509114004 | 49 | 217 | 0.0 | 6.0 | 0.01 | 0.24 | 0.08 | 97 | 1008.2 |
| 20260509113504 | 49 | 214 | 0.0 | 4.0 | 0.01 | 0.24 | 0.08 | 97 | 1008.2 |
| 20260509113003 | 49 | 128 | 1.0 | 4.0 | 0.00 | 0.23 | 0.07 | 97 | 1008.2 |
| 20260509112503 | 49 | 155 | 0.0 | 3.0 | 0.00 | 0.23 | 0.07 | 97 | 1008.2 |
| 20260509112003 | 49 | 155 | 0.0 | 3.0 | 0.00 | 0.23 | 0.07 | 97 | 1008.2 |
| 20260509111503 | 49 | 190 | 0.0 | 2.0 | 0.00 | 0.23 | 0.07 | 97 | 1008.1 |
| 20260509111002 | 49 | 188 | 0.0 | 4.0 | 0.00 | 0.23 | 0.07 | 97 | 1008.1 |
| 20260509110502 | 49 | 207 | 0.0 | 3.0 | 0.00 | 0.23 | 0.07 | 97 | 1008.1 |
| 20260509110003 | 49 | 236 | 0.0 | 2.0 | 0.00 | 0.23 | 0.07 | 97 | 1008.0 |
| 20260509105503 | 49 | 236 | 0.0 | 5.0 | 0.00 | 0.23 | 0.07 | 97 | 1008.0 |
| 20260509105003 | 49 | 236 | 1.0 | 5.0 | 0.00 | 0.23 | 0.07 | 97 | 1008.0 |
| 20260509104502 | 49 | 209 | 1.0 | 7.0 | 0.00 | 0.23 | 0.07 | 97 | 1008.0 |
| 20260509104001 | 49 | 186 | 1.0 | 7.0 | 0.00 | 0.23 | 0.07 | 97 | 1008.0 |
| 20260509103506 | 49 | 161 | 1.0 | 7.0 | 0.01 | 0.23 | 0.07 | 97 | 1008.0 |
| 20260509103001 | 49 | 192 | 1.0 | 3.0 | 0.01 | 0.23 | 0.07 | 97 | 1008.1 |
| 20260509102501 | 49 | 192 | 0.0 | 3.0 | 0.01 | 0.23 | 0.07 | 97 | 1008.1 |
| 20260509102000 | 49 | 235 | 1.0 | 2.0 | 0.01 | 0.23 | 0.07 | 97 | 1008.1 |
| 20260509101501 | 49 | 235 | 0.0 | 2.0 | 0.01 | 0.23 | 0.07 | 97 | 1008.1 |
| 20260509101102 | 49 | 235 | 1.0 | 2.0 | 0.01 | 0.23 | 0.07 | 97 | 1008.2 |
| 20260509100559 | 49 | 234 | 0.0 | 2.0 | 0.01 | 0.23 | 0.07 | 97 | 1008.1 |
| 20260509095603 | 49 | 234 | 1.0 | 5.0 | 0.01 | 0.23 | 0.07 | 97 | 1008.2 |
| 20260509095059 | 49 | 234 | 2.0 | 6.0 | 0.01 | 0.23 | 0.07 | 97 | 1008.3 |
| 20260509094558 | 49 | 235 | 2.0 | 6.0 | 0.01 | 0.23 | 0.07 | 97 | 1008.3 |
| 20260509094057 | 49 | 211 | 1.0 | 5.0 | 0.01 | 0.23 | 0.07 | 97 | 1008.4 |
| 20260509093557 | 49 | 205 | 3.0 | 7.0 | 0.01 | 0.22 | 0.06 | 97 | 1008.4 |
| 20260509093057 | 49 | 230 | 4.0 | 6.0 | 0.01 | 0.22 | 0.06 | 97 | 1008.3 |
| 20260509092557 | 49 | 216 | 1.0 | 6.0 | 0.01 | 0.22 | 0.06 | 97 | 1008.5 |
| 20260509092055 | 49 | 228 | 2.0 | 7.0 | 0.01 | 0.22 | 0.06 | 97 | 1008.4 |
| 20260509091556 | 49 | 226 | 2.0 | 7.0 | 0.01 | 0.22 | 0.06 | 97 | 1008.4 |
| 20260509091055 | 49 | 240 | 1.0 | 5.0 | 0.01 | 0.22 | 0.06 | 97 | 1008.4 |
| 20260509090555 | 49 | 226 | 1.0 | 5.0 | 0.01 | 0.22 | 0.06 | 97 | 1008.4 |
| 20260509090105 | 49 | 236 | 2.0 | 7.0 | 0.01 | 0.22 | 0.06 | 97 | 1008.5 |
| 20260509085555 | 49 | 212 | 2.0 | 7.0 | 0.01 | 0.22 | 0.06 | 97 | 1008.4 |
| 20260509085055 | 49 | 237 | 1.0 | 5.0 | 0.01 | 0.22 | 0.06 | 97 | 1008.5 |
| 20260509084559 | 49 | 219 | 2.0 | 5.0 | 0.01 | 0.22 | 0.06 | 97 | 1008.5 |
| 20260509084053 | 49 | 250 | 1.0 | 5.0 | 0.01 | 0.22 | 0.06 | 97 | 1008.4 |
| 20260509083551 | 49 | 250 | 1.0 | 7.0 | 0.00 | 0.21 | 0.05 | 97 | 1008.6 |
| 20260509083058 | 49 | 250 | 3.0 | 7.0 | 0.00 | 0.21 | 0.05 | 97 | 1008.6 |
| 20260509082551 | 49 | 221 | 2.0 | 4.0 | 0.01 | 0.21 | 0.05 | 97 | 1008.6 |
| 20260509082053 | 49 | 221 | 1.0 | 5.0 | 0.01 | 0.21 | 0.05 | 97 | 1008.6 |
| 20260509081550 | 49 | 221 | 2.0 | 5.0 | 0.01 | 0.21 | 0.05 | 96 | 1008.7 |
| 20260509081050 | 49 | 221 | 2.0 | 7.0 | 0.01 | 0.21 | 0.05 | 96 | 1008.7 |
| 20260509080549 | 49 | 213 | 4.0 | 7.0 | 0.01 | 0.21 | 0.05 | 97 | 1008.6 |
| 20260509080048 | 49 | 220 | 1.0 | 3.0 | 0.01 | 0.22 | 0.05 | 97 | 1008.5 |
| 20260509075548 | 49 | 211 | 0.0 | 4.0 | 0.01 | 0.22 | 0.05 | 96 | 1008.5 |
| 20260509075047 | 49 | 211 | 1.0 | 4.0 | 0.01 | 0.22 | 0.05 | 96 | 1008.6 |
| 20260509074546 | 49 | 211 | 0.0 | 3.0 | 0.02 | 0.22 | 0.05 | 96 | 1008.6 |
| 20260509074047 | 49 | 211 | 1.0 | 5.0 | 0.02 | 0.22 | 0.05 | 96 | 1008.6 |
| 20260509073546 | 49 | 212 | 2.0 | 5.0 | 0.02 | 0.22 | 0.05 | 96 | 1008.7 |
| 20260509073048 | 49 | 215 | 0.0 | 4.0 | 0.02 | 0.22 | 0.05 | 96 | 1008.6 |
| 20260509072546 | 49 | 215 | 1.0 | 4.0 | 0.01 | 0.21 | 0.04 | 96 | 1008.6 |
| 20260509072043 | 49 | 215 | 1.0 | 4.0 | 0.01 | 0.21 | 0.04 | 96 | 1008.7 |
| 20260509071543 | 48 | 216 | 1.0 | 4.0 | 0.01 | 0.21 | 0.04 | 96 | 1008.8 |
| 20260509071043 | 49 | 218 | 0.0 | 3.0 | 0.01 | 0.21 | 0.04 | 96 | 1008.7 |
| 20260509070544 | 49 | 218 | 1.0 | 3.0 | 0.01 | 0.21 | 0.04 | 96 | 1008.7 |
| 20260509070043 | 49 | 218 | 0.0 | 4.0 | 0.01 | 0.21 | 0.04 | 96 | 1008.7 |
| 20260509065541 | 49 | 218 | 1.0 | 4.0 | 0.02 | 0.21 | 0.04 | 96 | 1008.7 |
| 20260509065043 | 49 | 218 | 0.0 | 6.0 | 0.02 | 0.21 | 0.04 | 96 | 1008.8 |
| 20260509064544 | 49 | 218 | 2.0 | 6.0 | 0.01 | 0.20 | 0.03 | 96 | 1008.8 |
| 20260509064039 | 49 | 221 | 1.0 | 4.0 | 0.01 | 0.20 | 0.03 | 96 | 1008.9 |
| 20260509063537 | 49 | 169 | 1.0 | 4.0 | 0.01 | 0.20 | 0.03 | 96 | 1009.1 |
| 20260509063037 | 49 | 195 | 1.0 | 6.0 | 0.01 | 0.20 | 0.03 | 96 | 1009.1 |
| 20260509062537 | 49 | 215 | 3.0 | 6.0 | 0.02 | 0.20 | 0.03 | 96 | 1009.2 |
| 20260509062035 | 49 | 232 | 0.0 | 4.0 | 0.02 | 0.20 | 0.03 | 96 | 1009.3 |
| 20260509061541 | 49 | 232 | 1.0 | 6.0 | 0.02 | 0.20 | 0.03 | 96 | 1009.4 |
| 20260509061034 | 49 | 234 | 4.0 | 6.0 | 0.02 | 0.20 | 0.03 | 96 | 1009.5 |
| 20260509060534 | 49 | 232 | 2.0 | 5.0 | 0.02 | 0.20 | 0.03 | 96 | 1009.5 |
| 20260509060037 | 49 | 234 | 3.0 | 7.0 | 0.02 | 0.20 | 0.03 | 96 | 1009.6 |
| 20260509055533 | 49 | 157 | 2.0 | 7.0 | 0.01 | 0.19 | 0.02 | 96 | 1009.6 |
| 20260509055033 | 49 | 225 | 1.0 | 5.0 | 0.01 | 0.19 | 0.02 | 96 | 1009.7 |
| 20260509054531 | 49 | 213 | 1.0 | 5.0 | 0.01 | 0.19 | 0.02 | 96 | 1009.9 |
| 20260509054030 | 49 | 215 | 2.0 | 5.0 | 0.01 | 0.19 | 0.02 | 96 | 1009.9 |
| 20260509053530 | 49 | 215 | 0.0 | 4.0 | 0.02 | 0.19 | 0.02 | 96 | 1009.9 |
| 20260509053037 | 49 | 215 | 2.0 | 4.0 | 0.02 | 0.19 | 0.02 | 96 | 1010.0 |
| 20260509052529 | 49 | 215 | 1.0 | 4.0 | 0.01 | 0.18 | 0.01 | 96 | 1010.1 |
| 20260509052027 | 49 | 201 | 1.0 | 5.0 | 0.01 | 0.18 | 0.01 | 96 | 1010.1 |
| 20260509051527 | 49 | 216 | 3.0 | 5.0 | 0.01 | 0.18 | 0.01 | 96 | 1010.2 |
| 20260509051026 | 49 | 215 | 2.0 | 7.0 | 0.01 | 0.18 | 0.01 | 96 | 1010.2 |
| 20260509050526 | 49 | 217 | 4.0 | 7.0 | 0.01 | 0.18 | 0.01 | 96 | 1010.3 |
| 20260509050028 | 49 | 234 | 2.0 | 8.0 | 0.01 | 0.18 | 0.01 | 96 | 1010.4 |
| 20260509045525 | 49 | 223 | 3.0 | 8.0 | 0.01 | 0.18 | 0.01 | 96 | 1010.5 |
| 20260509045024 | 49 | 221 | 3.0 | 6.0 | 0.01 | 0.18 | 0.01 | 96 | 1010.5 |
| 20260509044522 | 49 | 213 | 2.0 | 8.0 | 0.01 | 0.18 | 0.01 | 96 | 1010.5 |
| 20260509044023 | 49 | 232 | 3.0 | 8.0 | 0.02 | 0.18 | 0.01 | 96 | 1010.6 |
| 20260509043521 | 49 | 142 | 2.0 | 7.0 | 0.01 | 0.17 | 0.00 | 96 | 1010.5 |
| 20260509043021 | 49 | 232 | 3.0 | 5.0 | 0.01 | 0.17 | 0.00 | 96 | 1010.6 |
| 20260509042520 | 49 | 188 | 1.0 | 4.0 | 0.01 | 0.17 | 0.00 | 96 | 1010.5 |
| 20260509042018 | 49 | 187 | 1.0 | 3.0 | 0.01 | 0.17 | 0.00 | 96 | 1010.6 |
| 20260509041528 | 49 | 147 | 1.0 | 4.0 | 0.01 | 0.17 | 0.00 | 96 | 1010.7 |
| 20260509041020 | 49 | 147 | 2.0 | 4.0 | 0.01 | 0.17 | 0.00 | 96 | 1010.7 |
| 20260509040516 | 49 | 234 | 0.0 | 5.0 | 0.01 | 0.17 | 0.00 | 96 | 1010.8 |
| 20260509040017 | 49 | 234 | 0.0 | 5.0 | 0.02 | 0.17 | 0.17 | 96 | 1010.8 |
| 20260509035515 | 49 | 188 | 0.0 | 3.0 | 0.02 | 0.17 | 0.17 | 96 | 1010.9 |
| 20260509035014 | 49 | 284 | 1.0 | 7.0 | 0.02 | 0.17 | 0.17 | 96 | 1010.9 |
| 20260509034514 | 49 | 222 | 2.0 | 7.0 | 0.02 | 0.17 | 0.17 | 96 | 1010.9 |
| 20260509034014 | 49 | 221 | 4.0 | 6.0 | 0.02 | 0.16 | 0.16 | 96 | 1010.9 |
| 20260509033514 | 49 | 239 | 1.0 | 4.0 | 0.02 | 0.16 | 0.16 | 96 | 1010.9 |
| 20260509033014 | 49 | 218 | 2.0 | 4.0 | 0.02 | 0.16 | 0.16 | 96 | 1011.1 |
| 20260509032514 | 49 | 234 | 1.0 | 6.0 | 0.02 | 0.16 | 0.16 | 96 | 1011.0 |
| 20260509032015 | 49 | 215 | 2.0 | 6.0 | 0.03 | 0.16 | 0.16 | 96 | 1011.0 |
| 20260509031514 | 49 | 219 | 2.0 | 6.0 | 0.03 | 0.16 | 0.16 | 95 | 1011.1 |
| 20260509031013 | 49 | 222 | 2.0 | 8.0 | 0.03 | 0.16 | 0.16 | 95 | 1011.3 |
| 20260509030517 | 49 | 217 | 5.0 | 8.0 | 0.04 | 0.16 | 0.16 | 95 | 1011.5 |
| 20260509030015 | 49 | 161 | 3.0 | 7.0 | 0.03 | 0.15 | 0.15 | 95 | 1011.4 |
| 20260509025515 | 49 | 228 | 2.0 | 5.0 | 0.03 | 0.15 | 0.15 | 95 | 1011.5 |
| 20260509025012 | 49 | 222 | 1.0 | 4.0 | 0.03 | 0.15 | 0.15 | 95 | 1011.4 |
| 20260509024514 | 49 | 223 | 1.0 | 4.0 | 0.04 | 0.15 | 0.15 | 95 | 1011.4 |
| 20260509024012 | 49 | 221 | 0.0 | 4.0 | 0.03 | 0.14 | 0.14 | 95 | 1011.5 |
| 20260509023512 | 49 | 221 | 2.0 | 4.0 | 0.04 | 0.14 | 0.14 | 95 | 1011.5 |
| 20260509023011 | 48 | 221 | 1.0 | 4.0 | 0.04 | 0.14 | 0.14 | 95 | 1011.4 |
| 20260509022513 | 48 | 222 | 0.0 | 3.0 | 0.04 | 0.14 | 0.14 | 95 | 1011.4 |
| 20260509022012 | 48 | 222 | 1.0 | 3.0 | 0.04 | 0.13 | 0.13 | 95 | 1011.5 |
| 20260509021511 | 48 | 222 | 1.0 | 3.0 | 0.04 | 0.13 | 0.13 | 95 | 1011.6 |
| 20260509021010 | 48 | 222 | 0.0 | 2.0 | 0.04 | 0.13 | 0.13 | 95 | 1011.7 |
| 20260509020512 | 48 | 222 | 0.0 | 2.0 | 0.04 | 0.12 | 0.12 | 95 | 1011.7 |
| 20260509020010 | 48 | 222 | 0.0 | 2.0 | 0.04 | 0.12 | 0.12 | 95 | 1011.7 |
| 20260509015510 | 48 | 222 | 0.0 | 3.0 | 0.05 | 0.12 | 0.12 | 94 | 1011.7 |
| 20260509015010 | 49 | 222 | 1.0 | 6.0 | 0.05 | 0.12 | 0.12 | 94 | 1011.7 |
| 20260509014512 | 49 | 222 | 1.0 | 6.0 | 0.04 | 0.11 | 0.11 | 94 | 1011.7 |
| 20260509014013 | 49 | 230 | 2.0 | 5.0 | 0.05 | 0.11 | 0.11 | 94 | 1011.7 |
| 20260509013509 | 49 | 232 | 2.0 | 5.0 | 0.04 | 0.10 | 0.10 | 94 | 1011.7 |
| 20260509013008 | 49 | 215 | 2.0 | 5.0 | 0.05 | 0.10 | 0.10 | 94 | 1011.5 |
| 20260509012508 | 49 | 235 | 1.0 | 5.0 | 0.05 | 0.10 | 0.10 | 94 | 1011.5 |
| 20260509012008 | 49 | 244 | 1.0 | 3.0 | 0.04 | 0.09 | 0.09 | 94 | 1011.5 |
| 20260509011508 | 49 | 245 | 0.0 | 2.0 | 0.04 | 0.09 | 0.09 | 94 | 1011.4 |
| 20260509011009 | 49 | 245 | 0.0 | 0.0 | 0.04 | 0.09 | 0.09 | 93 | 1011.3 |
| 20260509010510 | 49 | 245 | 0.0 | 0.0 | 0.03 | 0.08 | 0.08 | 93 | 1011.3 |
| 20260509010017 | 49 | 245 | 0.0 | 1.0 | 0.03 | 0.08 | 0.08 | 93 | 1011.3 |
| 20260509005506 | 49 | 245 | 0.0 | 4.0 | 0.02 | 0.07 | 0.07 | 93 | 1011.2 |
| 20260509005005 | 49 | 245 | 1.0 | 4.0 | 0.02 | 0.07 | 0.07 | 93 | 1011.1 |
| 20260509004509 | 49 | 245 | 1.0 | 5.0 | 0.02 | 0.07 | 0.07 | 93 | 1011.1 |
| 20260509004005 | 49 | 245 | 3.0 | 6.0 | 0.01 | 0.06 | 0.06 | 93 | 1011.2 |
| 20260509003504 | 50 | 232 | 4.0 | 7.0 | 0.01 | 0.06 | 0.06 | 92 | 1011.2 |
| 20260509003004 | 50 | 228 | 5.0 | 7.0 | 0.00 | 0.05 | 0.05 | 92 | 1011.1 |
| 20260509002504 | 50 | 198 | 0.0 | 2.0 | 0.00 | 0.05 | 0.05 | 92 | 1011.0 |
| 20260509002003 | 50 | 198 | 0.0 | 4.0 | 0.00 | 0.05 | 0.05 | 92 | 1010.8 |
| 20260509001505 | 50 | 198 | 1.0 | 4.0 | 0.00 | 0.05 | 0.05 | 92 | 1010.8 |
| 20260509001001 | 50 | 223 | 0.0 | 2.0 | 0.00 | 0.05 | 0.05 | 92 | 1010.7 |
| 20260509000604 | 50 | 223 | 0.0 | 2.0 | 0.00 | 0.05 | 0.05 | 92 | 1010.7 |
| 20260509000100 | 50 | 223 | 0.0 | 6.0 | 0.01 | 0.05 | 0.05 | 92 | 1010.8 |
| 20260508235600 | 50 | 225 | 2.0 | 7.0 | 0.01 | 0.05 | 0.05 | 92 | 1010.9 |
| 20260508235059 | 51 | 221 | 3.0 | 7.0 | 0.02 | 0.05 | 0.05 | 92 | 1010.9 |